Decoded Metar for LFMP (Perpignan in FRANCE) (IATA:PGF) | Meteo·Mobile Aviation Weather
aviador You're here:

LFMP Decoded Metar

Perpignan in FRANCE
Report Time2019-07-21 18:00:00
UTC Time2019-07-21 18:11:05
Flight Rules vfr VFR
WindCalm
Visibility9999 m
Phenomena:N/A
Clouds:N/A
Expected CloudBase > 2,400 ft AGL from Temp-Dew spread
CeilingNone
Temp28°C (ISA +13)
Dew Point22°C (70% RH)
Heat Index30.7°C
QNH1020 hPa
Density Alt1,801 ft
Elevation157 ft
Report Wrong Elevation
Raw Report
METAR LFMP 211800Z AUTO 00000KT 9999 NCD 28/22 Q1020 NOSIG=

Extra information for LFMP:More info

Metar Taf Metar & Taf Last 4 Metars F.Rules Stats Wind Profile Meteogram Temp Stats Airport Information Weather charts Add Link Nearby VenuesMetar ALERT Operation Metar Decoded Social comments